sensor_id;sensor_type;location;lat;lon;timestamp;pressure;altitude;pressure_sealevel;temperature
37536;BMP180;23379;51.554;6.736;2022-09-20T00:00:48;101652.00;;;10.60
37536;BMP180;23379;51.554;6.736;2022-09-20T00:03:14;101654.00;;;10.50
37536;BMP180;23379;51.554;6.736;2022-09-20T00:05:43;101638.00;;;10.60
37536;BMP180;23379;51.554;6.736;2022-09-20T00:08:12;101654.00;;;10.60
37536;BMP180;23379;51.554;6.736;2022-09-20T00:10:38;101656.00;;;10.60
37536;BMP180;23379;51.554;6.736;2022-09-20T00:15:44;101654.00;;;10.40
37536;BMP180;23379;51.554;6.736;2022-09-20T00:18:10;101657.00;;;10.40
37536;BMP180;23379;51.554;6.736;2022-09-20T00:20:36;101645.00;;;10.30
37536;BMP180;23379;51.554;6.736;2022-09-20T00:23:01;101652.00;;;10.30
37536;BMP180;23379;51.554;6.736;2022-09-20T00:25:26;101651.00;;;10.10
37536;BMP180;23379;51.554;6.736;2022-09-20T00:27:52;101654.00;;;10.20
37536;BMP180;23379;51.554;6.736;2022-09-20T00:30:17;101650.00;;;10.30
37536;BMP180;23379;51.554;6.736;2022-09-20T00:32:42;101635.00;;;10.20
37536;BMP180;23379;51.554;6.736;2022-09-20T00:35:08;101653.00;;;10.30
37536;BMP180;23379;51.554;6.736;2022-09-20T00:37:42;101665.00;;;10.20
37536;BMP180;23379;51.554;6.736;2022-09-20T00:40:13;101638.00;;;10.30
37536;BMP180;23379;51.554;6.736;2022-09-20T00:42:38;101657.00;;;10.30
37536;BMP180;23379;51.554;6.736;2022-09-20T00:45:07;101657.00;;;10.20
37536;BMP180;23379;51.554;6.736;2022-09-20T00:50:04;101655.00;;;10.20
37536;BMP180;23379;51.554;6.736;2022-09-20T00:52:32;101649.00;;;10.00
37536;BMP180;23379;51.554;6.736;2022-09-20T00:54:59;101653.00;;;10.00
37536;BMP180;23379;51.554;6.736;2022-09-20T00:57:25;101657.00;;;10.10
37536;BMP180;23379;51.554;6.736;2022-09-20T00:59:51;101658.00;;;10.20
37536;BMP180;23379;51.554;6.736;2022-09-20T01:02:25;101663.00;;;10.10
37536;BMP180;23379;51.554;6.736;2022-09-20T01:04:52;101658.00;;;10.00
37536;BMP180;23379;51.554;6.736;2022-09-20T01:07:19;101645.00;;;10.00
37536;BMP180;23379;51.554;6.736;2022-09-20T01:09:47;101651.00;;;10.00
37536;BMP180;23379;51.554;6.736;2022-09-20T01:12:25;101663.00;;;10.00
37536;BMP180;23379;51.554;6.736;2022-09-20T01:14:52;101633.00;;;10.00
37536;BMP180;23379;51.554;6.736;2022-09-20T01:17:20;101627.00;;;9.90
37536;BMP180;23379;51.554;6.736;2022-09-20T01:20:03;101655.00;;;9.80
37536;BMP180;23379;51.554;6.736;2022-09-20T01:27:51;101655.00;;;9.60
37536;BMP180;23379;51.554;6.736;2022-09-20T01:30:23;101648.00;;;9.50
37536;BMP180;23379;51.554;6.736;2022-09-20T01:33:06;101658.00;;;9.60
37536;BMP180;23379;51.554;6.736;2022-09-20T01:35:34;101654.00;;;9.70
37536;BMP180;23379;51.554;6.736;2022-09-20T01:45:51;101669.00;;;9.70
37536;BMP180;23379;51.554;6.736;2022-09-20T01:48:34;101646.00;;;9.70
37536;BMP180;23379;51.554;6.736;2022-09-20T01:54:38;101660.00;;;9.90
37536;BMP180;23379;51.554;6.736;2022-09-20T02:00:09;101653.00;;;9.90
37536;BMP180;23379;51.554;6.736;2022-09-20T02:03:13;101643.00;;;9.90
37536;BMP180;23379;51.554;6.736;2022-09-20T02:06:13;101663.00;;;9.90
37536;BMP180;23379;51.554;6.736;2022-09-20T02:08:55;101650.00;;;9.90
37536;BMP180;23379;51.554;6.736;2022-09-20T02:14:44;101658.00;;;9.80
37536;BMP180;23379;51.554;6.736;2022-09-20T02:20:32;101651.00;;;9.70
37536;BMP180;23379;51.554;6.736;2022-09-20T02:23:10;101653.00;;;9.70
37536;BMP180;23379;51.554;6.736;2022-09-20T02:25:44;101653.00;;;9.60
37536;BMP180;23379;51.554;6.736;2022-09-20T02:34:08;101642.00;;;9.90
37536;BMP180;23379;51.554;6.736;2022-09-20T02:36:44;101642.00;;;9.80
37536;BMP180;23379;51.554;6.736;2022-09-20T02:39:16;101641.00;;;9.60
37536;BMP180;23379;51.554;6.736;2022-09-20T02:44:35;101646.00;;;9.80
37536;BMP180;23379;51.554;6.736;2022-09-20T02:47:16;101656.00;;;10.00
37536;BMP180;23379;51.554;6.736;2022-09-20T02:52:31;101642.00;;;10.00
37536;BMP180;23379;51.554;6.736;2022-09-20T02:55:14;101661.00;;;10.00
37536;BMP180;23379;51.554;6.736;2022-09-20T03:00:44;101652.00;;;10.00
37536;BMP180;23379;51.554;6.736;2022-09-20T03:03:33;101646.00;;;10.10
37536;BMP180;23379;51.554;6.736;2022-09-20T03:06:26;101650.00;;;10.10
37536;BMP180;23379;51.554;6.736;2022-09-20T03:14:31;101662.00;;;10.20
37536;BMP180;23379;51.554;6.736;2022-09-20T03:17:03;101666.00;;;10.20
37536;BMP180;23379;51.554;6.736;2022-09-20T03:30:14;101661.00;;;10.60
37536;BMP180;23379;51.554;6.736;2022-09-20T03:33:05;101655.00;;;10.40
37536;BMP180;23379;51.554;6.736;2022-09-20T03:46:28;101644.00;;;10.80
37536;BMP180;23379;51.554;6.736;2022-09-20T04:03:27;101657.00;;;10.80
37536;BMP180;23379;51.554;6.736;2022-09-20T04:06:10;101637.00;;;10.80
37536;BMP180;23379;51.554;6.736;2022-09-20T04:11:54;101647.00;;;11.00
37536;BMP180;23379;51.554;6.736;2022-09-20T04:14:44;101654.00;;;11.10
37536;BMP180;23379;51.554;6.736;2022-09-20T04:17:24;101651.00;;;11.20
37536;BMP180;23379;51.554;6.736;2022-09-20T04:20:14;101654.00;;;11.30
37536;BMP180;23379;51.554;6.736;2022-09-20T04:22:43;101646.00;;;11.50
37536;BMP180;23379;51.554;6.736;2022-09-20T04:25:21;101644.00;;;11.60
37536;BMP180;23379;51.554;6.736;2022-09-20T04:27:55;101639.00;;;11.30
37536;BMP180;23379;51.554;6.736;2022-09-20T04:30:24;101628.00;;;11.20
37536;BMP180;23379;51.554;6.736;2022-09-20T04:38:37;101653.00;;;11.70
37536;BMP180;23379;51.554;6.736;2022-09-20T04:41:28;101657.00;;;11.80
37536;BMP180;23379;51.554;6.736;2022-09-20T04:49:44;101662.00;;;11.70
37536;BMP180;23379;51.554;6.736;2022-09-20T04:55:37;101664.00;;;11.80
37536;BMP180;23379;51.554;6.736;2022-09-20T05:01:02;101668.00;;;11.60
37536;BMP180;23379;51.554;6.736;2022-09-20T05:09:23;101683.00;;;12.00
37536;BMP180;23379;51.554;6.736;2022-09-20T05:22:59;101686.00;;;11.70
37536;BMP180;23379;51.554;6.736;2022-09-20T05:25:30;101689.00;;;11.90
37536;BMP180;23379;51.554;6.736;2022-09-20T05:28:18;101685.00;;;11.80
37536;BMP180;23379;51.554;6.736;2022-09-20T05:30:48;101649.00;;;11.80
37536;BMP180;23379;51.554;6.736;2022-09-20T05:33:21;101696.00;;;11.70
37536;BMP180;23379;51.554;6.736;2022-09-20T05:44:14;101709.00;;;12.10
37536;BMP180;23379;51.554;6.736;2022-09-20T05:49:34;101680.00;;;12.40
37536;BMP180;23379;51.554;6.736;2022-09-20T05:52:21;101697.00;;;12.50
37536;BMP180;23379;51.554;6.736;2022-09-20T06:00:13;101708.00;;;12.60
37536;BMP180;23379;51.554;6.736;2022-09-20T06:03:08;101699.00;;;12.60
37536;BMP180;23379;51.554;6.736;2022-09-20T06:05:58;101710.00;;;12.90
37536;BMP180;23379;51.554;6.736;2022-09-20T06:11:45;101713.00;;;13.30
37536;BMP180;23379;51.554;6.736;2022-09-20T06:22:32;101714.00;;;13.30
37536;BMP180;23379;51.554;6.736;2022-09-20T06:27:44;101729.00;;;13.40
37536;BMP180;23379;51.554;6.736;2022-09-20T06:30:24;101716.00;;;13.70
37536;BMP180;23379;51.554;6.736;2022-09-20T06:32:55;101717.00;;;13.70
37536;BMP180;23379;51.554;6.736;2022-09-20T06:35:22;101727.00;;;13.30
37536;BMP180;23379;51.554;6.736;2022-09-20T06:38:07;101725.00;;;13.30
37536;BMP180;23379;51.554;6.736;2022-09-20T06:40:54;101735.00;;;13.70
37536;BMP180;23379;51.554;6.736;2022-09-20T06:43:38;101729.00;;;13.20
37536;BMP180;23379;51.554;6.736;2022-09-20T06:46:05;101730.00;;;13.10
37536;BMP180;23379;51.554;6.736;2022-09-20T06:48:31;101728.00;;;13.20
37536;BMP180;23379;51.554;6.736;2022-09-20T06:50:56;101722.00;;;13.30
37536;BMP180;23379;51.554;6.736;2022-09-20T06:53:31;101740.00;;;13.20
37536;BMP180;23379;51.554;6.736;2022-09-20T06:55:59;101726.00;;;13.20
37536;BMP180;23379;51.554;6.736;2022-09-20T06:58:25;101734.00;;;13.30
37536;BMP180;23379;51.554;6.736;2022-09-20T07:00:54;101750.00;;;13.20
37536;BMP180;23379;51.554;6.736;2022-09-20T07:03:19;101749.00;;;13.20
37536;BMP180;23379;51.554;6.736;2022-09-20T07:05:45;101717.00;;;13.30
37536;BMP180;23379;51.554;6.736;2022-09-20T07:08:11;101746.00;;;13.60
37536;BMP180;23379;51.554;6.736;2022-09-20T07:10:37;101757.00;;;13.80
37536;BMP180;23379;51.554;6.736;2022-09-20T07:13:03;101741.00;;;13.90
37536;BMP180;23379;51.554;6.736;2022-09-20T07:15:30;101748.00;;;14.10
37536;BMP180;23379;51.554;6.736;2022-09-20T07:17:56;101699.00;;;14.10
37536;BMP180;23379;51.554;6.736;2022-09-20T07:20:22;101731.00;;;13.70
37536;BMP180;23379;51.554;6.736;2022-09-20T07:22:47;101705.00;;;14.00
37536;BMP180;23379;51.554;6.736;2022-09-20T07:25:13;101703.00;;;14.30
37536;BMP180;23379;51.554;6.736;2022-09-20T07:27:38;101709.00;;;14.20
37536;BMP180;23379;51.554;6.736;2022-09-20T07:30:05;101721.00;;;14.20
37536;BMP180;23379;51.554;6.736;2022-09-20T07:32:31;101739.00;;;15.00
37536;BMP180;23379;51.554;6.736;2022-09-20T07:34:57;101702.00;;;15.30
37536;BMP180;23379;51.554;6.736;2022-09-20T07:37:22;101737.00;;;15.00
37536;BMP180;23379;51.554;6.736;2022-09-20T07:39:47;101741.00;;;14.60
37536;BMP180;23379;51.554;6.736;2022-09-20T07:42:14;101761.00;;;15.00
37536;BMP180;23379;51.554;6.736;2022-09-20T07:44:39;101746.00;;;15.50
37536;BMP180;23379;51.554;6.736;2022-09-20T07:47:07;101751.00;;;15.60
37536;BMP180;23379;51.554;6.736;2022-09-20T07:49:34;101757.00;;;15.30
37536;BMP180;23379;51.554;6.736;2022-09-20T07:52:03;101765.00;;;15.50
37536;BMP180;23379;51.554;6.736;2022-09-20T07:54:32;101711.00;;;15.70
37536;BMP180;23379;51.554;6.736;2022-09-20T07:56:57;101758.00;;;16.10
37536;BMP180;23379;51.554;6.736;2022-09-20T07:59:23;101761.00;;;15.70
37536;BMP180;23379;51.554;6.736;2022-09-20T08:01:50;101774.00;;;16.10
37536;BMP180;23379;51.554;6.736;2022-09-20T08:04:15;101741.00;;;15.90
37536;BMP180;23379;51.554;6.736;2022-09-20T08:09:23;101759.00;;;16.00
37536;BMP180;23379;51.554;6.736;2022-09-20T08:11:49;101774.00;;;16.00
37536;BMP180;23379;51.554;6.736;2022-09-20T08:14:16;101786.00;;;15.80
37536;BMP180;23379;51.554;6.736;2022-09-20T08:16:44;101774.00;;;16.40
37536;BMP180;23379;51.554;6.736;2022-09-20T08:19:15;101783.00;;;16.60
37536;BMP180;23379;51.554;6.736;2022-09-20T08:21:41;101778.00;;;17.10
37536;BMP180;23379;51.554;6.736;2022-09-20T08:24:06;101775.00;;;16.70
37536;BMP180;23379;51.554;6.736;2022-09-20T08:26:32;101753.00;;;16.40
37536;BMP180;23379;51.554;6.736;2022-09-20T08:28:59;101779.00;;;16.50
37536;BMP180;23379;51.554;6.736;2022-09-20T08:31:29;101799.00;;;16.80
37536;BMP180;23379;51.554;6.736;2022-09-20T08:33:59;101778.00;;;17.00
37536;BMP180;23379;51.554;6.736;2022-09-20T08:36:28;101761.00;;;17.00
37536;BMP180;23379;51.554;6.736;2022-09-20T08:38:54;101801.00;;;17.40
37536;BMP180;23379;51.554;6.736;2022-09-20T08:41:23;101804.00;;;17.40
37536;BMP180;23379;51.554;6.736;2022-09-20T08:46:36;101792.00;;;18.00
37536;BMP180;23379;51.554;6.736;2022-09-20T08:49:05;101775.00;;;17.80
37536;BMP180;23379;51.554;6.736;2022-09-20T08:51:33;101805.00;;;18.20
37536;BMP180;23379;51.554;6.736;2022-09-20T08:54:01;101772.00;;;18.80
37536;BMP180;23379;51.554;6.736;2022-09-20T08:56:33;101788.00;;;18.30
37536;BMP180;23379;51.554;6.736;2022-09-20T08:59:00;101803.00;;;18.70
37536;BMP180;23379;51.554;6.736;2022-09-20T09:01:27;101791.00;;;19.10
37536;BMP180;23379;51.554;6.736;2022-09-20T09:04:03;101814.00;;;19.10
37536;BMP180;23379;51.554;6.736;2022-09-20T09:06:34;101787.00;;;19.50
37536;BMP180;23379;51.554;6.736;2022-09-20T09:09:00;101807.00;;;19.60
37536;BMP180;23379;51.554;6.736;2022-09-20T09:11:26;101806.00;;;19.10
37536;BMP180;23379;51.554;6.736;2022-09-20T09:13:55;101796.00;;;19.30
37536;BMP180;23379;51.554;6.736;2022-09-20T09:16:26;101810.00;;;19.20
37536;BMP180;23379;51.554;6.736;2022-09-20T09:18:52;101810.00;;;19.10
37536;BMP180;23379;51.554;6.736;2022-09-20T09:21:26;101807.00;;;19.30
37536;BMP180;23379;51.554;6.736;2022-09-20T09:24:01;101822.00;;;19.10
37536;BMP180;23379;51.554;6.736;2022-09-20T09:26:28;101814.00;;;18.70
37536;BMP180;23379;51.554;6.736;2022-09-20T09:31:39;101794.00;;;19.80
37536;BMP180;23379;51.554;6.736;2022-09-20T09:34:26;101810.00;;;20.00
37536;BMP180;23379;51.554;6.736;2022-09-20T09:36:52;101820.00;;;20.00
37536;BMP180;23379;51.554;6.736;2022-09-20T09:39:35;101819.00;;;19.00
37536;BMP180;23379;51.554;6.736;2022-09-20T09:42:24;101820.00;;;19.10
37536;BMP180;23379;51.554;6.736;2022-09-20T09:44:50;101800.00;;;18.60
37536;BMP180;23379;51.554;6.736;2022-09-20T09:47:26;101795.00;;;18.30
37536;BMP180;23379;51.554;6.736;2022-09-20T09:49:58;101799.00;;;18.30
37536;BMP180;23379;51.554;6.736;2022-09-20T09:52:24;101816.00;;;17.90
37536;BMP180;23379;51.554;6.736;2022-09-20T09:54:54;101793.00;;;18.40
37536;BMP180;23379;51.554;6.736;2022-09-20T09:57:44;101814.00;;;18.30
37536;BMP180;23379;51.554;6.736;2022-09-20T10:00:18;101807.00;;;19.60
37536;BMP180;23379;51.554;6.736;2022-09-20T10:03:14;101814.00;;;19.70
37536;BMP180;23379;51.554;6.736;2022-09-20T10:24:18;101808.00;;;19.90
37536;BMP180;23379;51.554;6.736;2022-09-20T10:32:26;101808.00;;;18.80
37536;BMP180;23379;51.554;6.736;2022-09-20T10:38:10;101808.00;;;18.00
37536;BMP180;23379;51.554;6.736;2022-09-20T10:46:46;101816.00;;;19.20
37536;BMP180;23379;51.554;6.736;2022-09-20T10:51:58;101808.00;;;22.20
37536;BMP180;23379;51.554;6.736;2022-09-20T10:54:42;101797.00;;;24.20
37536;BMP180;23379;51.554;6.736;2022-09-20T10:57:27;101807.00;;;25.00
37536;BMP180;23379;51.554;6.736;2022-09-20T11:00:07;101808.00;;;25.20
37536;BMP180;23379;51.554;6.736;2022-09-20T11:03:21;101815.00;;;24.90
37536;BMP180;23379;51.554;6.736;2022-09-20T11:08:28;101779.00;;;22.90
37536;BMP180;23379;51.554;6.736;2022-09-20T11:10:57;101816.00;;;22.50
37536;BMP180;23379;51.554;6.736;2022-09-20T11:18:52;101823.00;;;21.60
37536;BMP180;23379;51.554;6.736;2022-09-20T11:21:31;101826.00;;;20.70
37536;BMP180;23379;51.554;6.736;2022-09-20T11:24:04;101823.00;;;22.00
37536;BMP180;23379;51.554;6.736;2022-09-20T11:26:37;101827.00;;;21.30
37536;BMP180;23379;51.554;6.736;2022-09-20T11:31:43;101833.00;;;22.20
37536;BMP180;23379;51.554;6.736;2022-09-20T11:34:31;101829.00;;;23.80
37536;BMP180;23379;51.554;6.736;2022-09-20T11:36:59;101810.00;;;25.00
37536;BMP180;23379;51.554;6.736;2022-09-20T11:39:55;101815.00;;;25.30
37536;BMP180;23379;51.554;6.736;2022-09-20T11:42:29;101844.00;;;25.50
37536;BMP180;23379;51.554;6.736;2022-09-20T11:44:57;101828.00;;;25.30
37536;BMP180;23379;51.554;6.736;2022-09-20T11:47:31;101833.00;;;24.00
37536;BMP180;23379;51.554;6.736;2022-09-20T11:55:41;101827.00;;;21.90
37536;BMP180;23379;51.554;6.736;2022-09-20T11:58:11;101836.00;;;22.20
37536;BMP180;23379;51.554;6.736;2022-09-20T12:00:42;101834.00;;;21.40
37536;BMP180;23379;51.554;6.736;2022-09-20T12:03:38;101751.00;;;20.30
37536;BMP180;23379;51.554;6.736;2022-09-20T12:06:07;101827.00;;;20.90
37536;BMP180;23379;51.554;6.736;2022-09-20T12:08:40;101826.00;;;20.70
37536;BMP180;23379;51.554;6.736;2022-09-20T12:11:08;101817.00;;;20.70
37536;BMP180;23379;51.554;6.736;2022-09-20T12:13:37;101816.00;;;20.20
37536;BMP180;23379;51.554;6.736;2022-09-20T12:16:12;101806.00;;;19.60
37536;BMP180;23379;51.554;6.736;2022-09-20T12:19:00;101809.00;;;19.90
37536;BMP180;23379;51.554;6.736;2022-09-20T12:21:27;101827.00;;;20.70
37536;BMP180;23379;51.554;6.736;2022-09-20T12:28:53;101827.00;;;21.40
37536;BMP180;23379;51.554;6.736;2022-09-20T12:36:30;101830.00;;;22.60
37536;BMP180;23379;51.554;6.736;2022-09-20T12:41:24;101831.00;;;26.60
37536;BMP180;23379;51.554;6.736;2022-09-20T12:43:53;101841.00;;;28.50
37536;BMP180;23379;51.554;6.736;2022-09-20T12:46:30;101826.00;;;30.90
37536;BMP180;23379;51.554;6.736;2022-09-20T12:49:19;101833.00;;;30.00
37536;BMP180;23379;51.554;6.736;2022-09-20T12:52:28;101833.00;;;30.50
37536;BMP180;23379;51.554;6.736;2022-09-20T13:03:36;101831.00;;;31.10
37536;BMP180;23379;51.554;6.736;2022-09-20T13:11:16;101823.00;;;27.10
37536;BMP180;23379;51.554;6.736;2022-09-20T13:13:47;101826.00;;;27.80
37536;BMP180;23379;51.554;6.736;2022-09-20T13:19:18;101834.00;;;28.30
37536;BMP180;23379;51.554;6.736;2022-09-20T13:21:52;101824.00;;;25.90
37536;BMP180;23379;51.554;6.736;2022-09-20T13:24:18;101828.00;;;26.50
37536;BMP180;23379;51.554;6.736;2022-09-20T13:26:48;101811.00;;;24.90
37536;BMP180;23379;51.554;6.736;2022-09-20T13:29:37;101829.00;;;23.70
37536;BMP180;23379;51.554;6.736;2022-09-20T13:32:28;101834.00;;;22.30
37536;BMP180;23379;51.554;6.736;2022-09-20T13:37:59;101829.00;;;20.50
37536;BMP180;23379;51.554;6.736;2022-09-20T13:40:37;101820.00;;;19.80
37536;BMP180;23379;51.554;6.736;2022-09-20T13:43:06;101832.00;;;19.10
37536;BMP180;23379;51.554;6.736;2022-09-20T13:45:32;101824.00;;;19.00
37536;BMP180;23379;51.554;6.736;2022-09-20T13:47:59;101830.00;;;18.60
37536;BMP180;23379;51.554;6.736;2022-09-20T13:53:02;101836.00;;;18.50
37536;BMP180;23379;51.554;6.736;2022-09-20T13:55:34;101836.00;;;18.10
37536;BMP180;23379;51.554;6.736;2022-09-20T13:58:15;101819.00;;;18.20
37536;BMP180;23379;51.554;6.736;2022-09-20T14:00:46;101794.00;;;18.00
37536;BMP180;23379;51.554;6.736;2022-09-20T14:03:16;101763.00;;;17.70
37536;BMP180;23379;51.554;6.736;2022-09-20T14:05:59;101830.00;;;17.50
37536;BMP180;23379;51.554;6.736;2022-09-20T14:08:33;101836.00;;;17.60
37536;BMP180;23379;51.554;6.736;2022-09-20T14:11:12;101823.00;;;17.60
37536;BMP180;23379;51.554;6.736;2022-09-20T14:13:42;101760.00;;;17.60
37536;BMP180;23379;51.554;6.736;2022-09-20T14:16:09;101768.00;;;17.70
37536;BMP180;23379;51.554;6.736;2022-09-20T14:18:35;101841.00;;;18.10
37536;BMP180;23379;51.554;6.736;2022-09-20T14:21:05;101834.00;;;18.10
37536;BMP180;23379;51.554;6.736;2022-09-20T14:23:46;101812.00;;;18.00
37536;BMP180;23379;51.554;6.736;2022-09-20T14:28:44;101836.00;;;17.90
37536;BMP180;23379;51.554;6.736;2022-09-20T14:31:21;101799.00;;;18.20
37536;BMP180;23379;51.554;6.736;2022-09-20T14:33:53;101816.00;;;18.10
37536;BMP180;23379;51.554;6.736;2022-09-20T14:36:29;101818.00;;;18.20
37536;BMP180;23379;51.554;6.736;2022-09-20T14:39:13;101815.00;;;18.20
37536;BMP180;23379;51.554;6.736;2022-09-20T14:41:40;101835.00;;;18.10
37536;BMP180;23379;51.554;6.736;2022-09-20T14:44:23;101831.00;;;18.10
37536;BMP180;23379;51.554;6.736;2022-09-20T14:46:50;101816.00;;;18.60
37536;BMP180;23379;51.554;6.736;2022-09-20T14:57:34;101817.00;;;19.20
37536;BMP180;23379;51.554;6.736;2022-09-20T15:00:04;101810.00;;;19.70
37536;BMP180;23379;51.554;6.736;2022-09-20T15:02:34;101812.00;;;19.50
37536;BMP180;23379;51.554;6.736;2022-09-20T15:05:00;101797.00;;;19.30
37536;BMP180;23379;51.554;6.736;2022-09-20T15:07:26;101816.00;;;19.50
37536;BMP180;23379;51.554;6.736;2022-09-20T15:09:54;101791.00;;;19.50
37536;BMP180;23379;51.554;6.736;2022-09-20T15:12:20;101788.00;;;19.60
37536;BMP180;23379;51.554;6.736;2022-09-20T15:14:46;101820.00;;;19.60
37536;BMP180;23379;51.554;6.736;2022-09-20T15:17:21;101799.00;;;19.40
37536;BMP180;23379;51.554;6.736;2022-09-20T15:19:47;101823.00;;;19.20
37536;BMP180;23379;51.554;6.736;2022-09-20T15:22:13;101817.00;;;19.50
37536;BMP180;23379;51.554;6.736;2022-09-20T15:24:41;101828.00;;;19.20
37536;BMP180;23379;51.554;6.736;2022-09-20T15:27:06;101776.00;;;19.10
37536;BMP180;23379;51.554;6.736;2022-09-20T15:29:32;101802.00;;;18.70
37536;BMP180;23379;51.554;6.736;2022-09-20T15:31:57;101821.00;;;18.30
37536;BMP180;23379;51.554;6.736;2022-09-20T15:34:23;101799.00;;;18.20
37536;BMP180;23379;51.554;6.736;2022-09-20T15:36:48;101820.00;;;18.10
37536;BMP180;23379;51.554;6.736;2022-09-20T15:39:15;101770.00;;;17.80
37536;BMP180;23379;51.554;6.736;2022-09-20T15:41:40;101802.00;;;17.70
37536;BMP180;23379;51.554;6.736;2022-09-20T15:44:07;101812.00;;;17.40
37536;BMP180;23379;51.554;6.736;2022-09-20T15:46:33;101828.00;;;17.40
37536;BMP180;23379;51.554;6.736;2022-09-20T15:49:00;101825.00;;;16.90
37536;BMP180;23379;51.554;6.736;2022-09-20T15:51:27;101784.00;;;16.80
37536;BMP180;23379;51.554;6.736;2022-09-20T15:56:29;101802.00;;;16.90
37536;BMP180;23379;51.554;6.736;2022-09-20T15:59:00;101795.00;;;17.00
37536;BMP180;23379;51.554;6.736;2022-09-20T16:01:31;101832.00;;;16.60
37536;BMP180;23379;51.554;6.736;2022-09-20T16:03:57;101832.00;;;16.30
37536;BMP180;23379;51.554;6.736;2022-09-20T16:06:24;101828.00;;;16.30
37536;BMP180;23379;51.554;6.736;2022-09-20T16:08:50;101824.00;;;16.60
37536;BMP180;23379;51.554;6.736;2022-09-20T16:11:19;101820.00;;;16.30
37536;BMP180;23379;51.554;6.736;2022-09-20T16:13:57;101827.00;;;16.70
37536;BMP180;23379;51.554;6.736;2022-09-20T16:16:24;101826.00;;;16.60
37536;BMP180;23379;51.554;6.736;2022-09-20T16:18:50;101844.00;;;16.90
37536;BMP180;23379;51.554;6.736;2022-09-20T16:21:36;101827.00;;;16.80
37536;BMP180;23379;51.554;6.736;2022-09-20T16:24:01;101824.00;;;16.60
37536;BMP180;23379;51.554;6.736;2022-09-20T16:26:27;101811.00;;;16.50
37536;BMP180;23379;51.554;6.736;2022-09-20T16:28:53;101818.00;;;16.60
37536;BMP180;23379;51.554;6.736;2022-09-20T16:31:39;101843.00;;;16.60
37536;BMP180;23379;51.554;6.736;2022-09-20T16:34:26;101846.00;;;16.60
37536;BMP180;23379;51.554;6.736;2022-09-20T16:36:57;101850.00;;;16.60
37536;BMP180;23379;51.554;6.736;2022-09-20T16:39:24;101856.00;;;16.50
37536;BMP180;23379;51.554;6.736;2022-09-20T16:41:55;101850.00;;;16.80
37536;BMP180;23379;51.554;6.736;2022-09-20T16:44:31;101824.00;;;16.70
37536;BMP180;23379;51.554;6.736;2022-09-20T16:46:56;101849.00;;;16.90
37536;BMP180;23379;51.554;6.736;2022-09-20T16:49:22;101839.00;;;16.50
37536;BMP180;23379;51.554;6.736;2022-09-20T16:51:48;101836.00;;;16.70
37536;BMP180;23379;51.554;6.736;2022-09-20T16:54:16;101859.00;;;16.30
37536;BMP180;23379;51.554;6.736;2022-09-20T16:56:43;101773.00;;;16.00
37536;BMP180;23379;51.554;6.736;2022-09-20T16:59:14;101853.00;;;16.30
37536;BMP180;23379;51.554;6.736;2022-09-20T17:01:40;101830.00;;;16.20
37536;BMP180;23379;51.554;6.736;2022-09-20T17:04:07;101831.00;;;16.20
37536;BMP180;23379;51.554;6.736;2022-09-20T17:06:35;101834.00;;;16.10
37536;BMP180;23379;51.554;6.736;2022-09-20T17:09:03;101855.00;;;15.90
37536;BMP180;23379;51.554;6.736;2022-09-20T17:11:31;101828.00;;;16.10
37536;BMP180;23379;51.554;6.736;2022-09-20T17:13:57;101785.00;;;16.00
37536;BMP180;23379;51.554;6.736;2022-09-20T17:18:56;101848.00;;;15.70
37536;BMP180;23379;51.554;6.736;2022-09-20T17:21:23;101870.00;;;15.60
37536;BMP180;23379;51.554;6.736;2022-09-20T17:23:50;101870.00;;;15.50
37536;BMP180;23379;51.554;6.736;2022-09-20T17:26:24;101873.00;;;15.20
37536;BMP180;23379;51.554;6.736;2022-09-20T17:28:51;101790.00;;;15.30
37536;BMP180;23379;51.554;6.736;2022-09-20T17:31:23;101873.00;;;15.20
37536;BMP180;23379;51.554;6.736;2022-09-20T17:33:50;101873.00;;;15.20
37536;BMP180;23379;51.554;6.736;2022-09-20T17:36:19;101877.00;;;15.10
37536;BMP180;23379;51.554;6.736;2022-09-20T17:38:46;101880.00;;;14.70
37536;BMP180;23379;51.554;6.736;2022-09-20T17:41:14;101815.00;;;14.80
37536;BMP180;23379;51.554;6.736;2022-09-20T17:43:40;101892.00;;;14.30
37536;BMP180;23379;51.554;6.736;2022-09-20T17:46:10;101899.00;;;14.40
37536;BMP180;23379;51.554;6.736;2022-09-20T17:48:36;101890.00;;;14.30
37536;BMP180;23379;51.554;6.736;2022-09-20T17:51:03;101879.00;;;14.30
37536;BMP180;23379;51.554;6.736;2022-09-20T17:53:30;101906.00;;;14.40
37536;BMP180;23379;51.554;6.736;2022-09-20T17:55:57;101907.00;;;14.20
37536;BMP180;23379;51.554;6.736;2022-09-20T17:58:23;101896.00;;;14.20
37536;BMP180;23379;51.554;6.736;2022-09-20T18:00:50;101902.00;;;14.30
37536;BMP180;23379;51.554;6.736;2022-09-20T18:03:16;101883.00;;;14.10
37536;BMP180;23379;51.554;6.736;2022-09-20T18:05:41;101892.00;;;14.00
37536;BMP180;23379;51.554;6.736;2022-09-20T18:08:07;101901.00;;;14.10
37536;BMP180;23379;51.554;6.736;2022-09-20T18:10:33;101884.00;;;14.10
37536;BMP180;23379;51.554;6.736;2022-09-20T18:12:58;101909.00;;;14.10
37536;BMP180;23379;51.554;6.736;2022-09-20T18:15:24;101874.00;;;14.10
37536;BMP180;23379;51.554;6.736;2022-09-20T18:17:49;101863.00;;;14.00
37536;BMP180;23379;51.554;6.736;2022-09-20T18:20:15;101855.00;;;13.90
37536;BMP180;23379;51.554;6.736;2022-09-20T18:22:40;101906.00;;;13.80
37536;BMP180;23379;51.554;6.736;2022-09-20T18:25:06;101916.00;;;13.60
37536;BMP180;23379;51.554;6.736;2022-09-20T18:27:31;101903.00;;;13.80
37536;BMP180;23379;51.554;6.736;2022-09-20T18:30:01;101904.00;;;13.70
37536;BMP180;23379;51.554;6.736;2022-09-20T18:32:26;101912.00;;;13.50
37536;BMP180;23379;51.554;6.736;2022-09-20T18:34:54;101915.00;;;13.50
37536;BMP180;23379;51.554;6.736;2022-09-20T18:37:19;101907.00;;;13.50
37536;BMP180;23379;51.554;6.736;2022-09-20T18:39:45;101904.00;;;13.40
37536;BMP180;23379;51.554;6.736;2022-09-20T18:42:10;101927.00;;;13.40
37536;BMP180;23379;51.554;6.736;2022-09-20T18:44:36;101933.00;;;13.20
37536;BMP180;23379;51.554;6.736;2022-09-20T18:47:03;101923.00;;;13.20